メインページ
METAR-TAF:

METAR-TAF

空港 :

トレントン, オンタリオ州, カナダ

緯度: 44-07N, 経度: 077-32W, 海抜: 85m

現時点の気象観測

当レポートは1時間5分前の08:00(UTC)に作成
西の風 9kt
気温 3°C
湿度 48%
気圧 1013 hPa
視程: 14.5km
晴天

METAR: CYTR 230800Z AUTO 28009KT 9SM CLR 03/M07 A2992 RMK SLP135

時間: 05:05 (09:05 UTC)

予報

当レポートは3時間35分前の05:30(UTC)に作成
予報は23日の 06時(UTC)から 24日の 06時(UTC)まで有効
西/南西の風 8kt
視程: 10km
高度4000ftの雲はほとんどない
23日の 1400時(UTC)から
西/南西の風 10kt
視程: 10km
高度4000ftの雲はほとんどない
23日の 1700時(UTC)から
南西の風 15kt
視程: 10km
晴天
23日の 2300時(UTC)から
西の風 12kt
視程: 10km
高度6000ftの雲はほとんどない
24日の 0200時(UTC)から
西の風 8kt
視程: 10km
高度6000ftの雲は散在している

TAF: CYTR 230530Z 2306/2406 25008KT P6SM FEW040 FM231400 25010KT P6SM FEW040 FM231700 23015KT P6SM SKC FM232300 26012KT P6SM FEW060 FM240200 27008KT P6SM SCT060 RMK FCST BASED ON AUTO OBS 230600-231000Z. NXT FCST BY 231200Z

4,000以上の空港の気象観測と天気予報(METAR報とTAF報)

利用可能な観測所は地図上に黄色い丸と赤い丸で示す。

丸の上にカーソルを重ねると観測所名を参照できる。

次にクリックすると気象観測と天気予報を参照できる。

マップの切り替え:黒色「×」印の緑ボタンをクリックして拡大、「-」印の緑ボタンをクリックして縮小、緑色の三角印をクリックして隣りの地図に切り替え


METAR-TAF: